createdAt,value
2019-04-06T00:03:16.989Z,20.30
2019-04-06T00:08:21.885Z,23.67
2019-04-06T00:13:27.158Z,21.67
2019-04-06T00:18:32.622Z,20.07
2019-04-06T00:23:37.799Z,19.53
2019-04-06T00:28:43.494Z,21.90
2019-04-06T00:33:48.798Z,19.00
2019-04-06T00:38:53.954Z,21.20
2019-04-06T00:43:59.129Z,22.13
2019-04-06T00:49:04.291Z,21.23
2019-04-06T00:54:09.450Z,22.87
2019-04-06T00:59:14.822Z,24.67
2019-04-06T01:04:19.562Z,24.93
2019-04-06T01:09:24.707Z,21.43
2019-04-06T01:14:30.275Z,24.40
2019-04-06T01:19:35.491Z,20.13
2019-04-06T01:24:40.813Z,19.40
2019-04-06T01:29:46.158Z,21.77
2019-04-06T01:34:51.081Z,18.67
2019-04-06T01:39:56.311Z,18.90
2019-04-06T01:45:01.345Z,23.63
2019-04-06T01:50:06.257Z,21.03
2019-04-06T01:55:11.499Z,21.33
2019-04-06T02:00:16.618Z,19.17
2019-04-06T02:05:22.055Z,19.07
2019-04-06T02:10:26.930Z,19.40
2019-04-06T02:15:32.208Z,20.77
2019-04-06T02:20:37.220Z,19.13
2019-04-06T02:25:42.397Z,19.60
2019-04-06T02:31:09.871Z,22.17
2019-04-06T02:36:37.006Z,21.80
2019-04-06T02:41:46.628Z,18.70
2019-04-06T02:46:51.557Z,21.33
2019-04-06T02:51:56.783Z,25.73
2019-04-06T02:57:01.743Z,20.83
2019-04-06T03:02:07.438Z,16.20
2019-04-06T03:07:12.253Z,16.90
2019-04-06T03:12:17.389Z,19.60
2019-04-06T03:17:22.549Z,18.30
2019-04-06T03:22:27.569Z,16.00
2019-04-06T03:27:32.478Z,15.80
2019-04-06T03:32:38.273Z,18.73
2019-04-06T03:37:43.463Z,18.90
2019-04-06T03:42:48.400Z,18.57
2019-04-06T03:47:53.937Z,16.77
2019-04-06T03:52:59.310Z,18.43
2019-04-06T03:58:04.885Z,19.23
2019-04-06T04:03:10.530Z,17.37
2019-04-06T04:08:15.529Z,20.50
2019-04-06T04:13:20.530Z,20.97
2019-04-06T04:18:25.909Z,22.00
2019-04-06T04:23:30.856Z,21.40
2019-04-06T04:28:36.010Z,22.73
2019-04-06T04:33:41.911Z,21.73
2019-04-06T04:38:46.865Z,20.50
2019-04-06T04:43:52.167Z,20.97
2019-04-06T04:48:57.117Z,20.40
2019-04-06T04:54:02.269Z,22.23
2019-04-06T04:59:07.669Z,19.57
2019-04-06T05:04:13.190Z,18.90
2019-04-06T05:09:18.517Z,20.73
2019-04-06T05:14:57.006Z,19.70
2019-04-06T05:20:02.215Z,23.43
2019-04-06T05:25:07.772Z,22.60
2019-04-06T05:30:13.067Z,17.50
2019-04-06T05:35:18.217Z,18.50
2019-04-06T05:40:23.411Z,19.17
2019-04-06T05:45:28.802Z,22.73
2019-04-06T05:50:33.898Z,23.40
2019-04-06T05:55:38.977Z,18.90
2019-04-06T06:00:46.231Z,19.87
2019-04-06T06:05:51.385Z,18.93
2019-04-06T06:10:56.966Z,24.03
2019-04-06T06:16:02.736Z,21.60
2019-04-06T06:21:08.202Z,21.43
2019-04-06T06:26:13.590Z,25.30
2019-04-06T06:31:19.198Z,26.40
2019-04-06T06:36:25.320Z,23.07
2019-04-06T06:41:30.498Z,31.03
2019-04-06T06:46:35.972Z,21.13
2019-04-06T06:51:40.951Z,25.03
2019-04-06T06:56:46.089Z,23.77
2019-04-06T07:01:51.347Z,19.47
2019-04-06T07:06:56.637Z,21.63
2019-04-06T07:12:01.980Z,19.23
2019-04-06T07:17:06.994Z,22.47
2019-04-06T07:22:12.299Z,17.60
2019-04-06T07:27:17.582Z,19.17
2019-04-06T07:32:22.573Z,19.00
2019-04-06T07:37:28.128Z,19.97
2019-04-06T07:42:33.355Z,18.53
2019-04-06T07:47:38.247Z,20.27
2019-04-06T07:52:43.029Z,21.00
2019-04-06T07:57:48.249Z,16.60
2019-04-06T08:02:53.328Z,16.60
2019-04-06T08:07:58.581Z,19.60
2019-04-06T08:13:04.028Z,18.90
2019-04-06T08:18:08.968Z,20.27
2019-04-06T08:23:14.334Z,18.67
2019-04-06T08:28:20.567Z,15.17
2019-04-06T08:33:25.677Z,19.97
2019-04-06T08:38:31.137Z,17.80
2019-04-06T08:43:36.539Z,12.87
2019-04-06T08:48:42.121Z,12.70
2019-04-06T08:53:47.631Z,11.13
2019-04-06T08:58:52.827Z,11.67
2019-04-06T09:03:57.964Z,8.80
2019-04-06T09:09:05.909Z,14.20
2019-04-06T09:14:10.800Z,14.83
2019-04-06T09:19:15.803Z,14.17
2019-04-06T09:24:21.223Z,16.67
2019-04-06T09:29:26.404Z,17.50
2019-04-06T09:34:31.360Z,16.10
2019-04-06T09:39:36.581Z,19.10
2019-04-06T09:45:00.855Z,20.67
2019-04-06T09:50:24.621Z,15.13
2019-04-06T09:56:06.809Z,20.20
2019-04-06T10:01:38.868Z,17.53
2019-04-06T10:06:59.873Z,15.90
2019-04-06T10:12:18.198Z,20.53
2019-04-06T10:17:42.178Z,21.33
2019-04-06T10:22:56.264Z,18.90
2019-04-06T10:28:29.297Z,19.43
2019-04-06T10:33:56.381Z,22.00
2019-04-06T10:39:15.837Z,21.23
2019-04-06T10:44:40.018Z,18.60
2019-04-06T10:50:20.405Z,21.70
2019-04-06T10:55:35.101Z,20.97
2019-04-06T11:00:49.198Z,21.73
2019-04-06T11:06:15.122Z,21.63
2019-04-06T11:11:28.460Z,23.40
2019-04-06T11:16:55.268Z,23.30
2019-04-06T11:22:07.846Z,22.17
2019-04-06T11:27:31.044Z,25.07
2019-04-06T11:32:52.198Z,21.50
2019-04-06T11:38:12.553Z,22.93
2019-04-06T11:43:37.102Z,20.83
2019-04-06T11:49:03.832Z,24.17
2019-04-06T11:54:26.420Z,22.07
2019-04-06T11:59:50.468Z,23.23
2019-04-06T12:05:14.651Z,25.23
2019-04-06T12:10:25.549Z,24.07
2019-04-06T12:15:49.062Z,23.53
2019-04-06T12:21:11.848Z,25.33
2019-04-06T12:26:51.000Z,26.90
2019-04-06T12:32:05.850Z,21.50
2019-04-06T12:37:39.109Z,21.90
2019-04-06T12:43:07.771Z,23.33
2019-04-06T12:48:30.962Z,18.93
2019-04-06T12:53:49.153Z,22.43
2019-04-06T12:59:13.158Z,21.60
2019-04-06T13:04:52.790Z,23.47
2019-04-06T13:10:12.381Z,21.53
2019-04-06T13:15:33.637Z,19.10
2019-04-06T13:20:48.879Z,19.10
2019-04-06T13:26:19.535Z,21.37
2019-04-06T13:31:47.165Z,20.13
2019-04-06T13:37:02.121Z,21.13
2019-04-06T13:42:17.874Z,18.03
2019-04-06T13:47:43.413Z,19.47
2019-04-06T13:53:01.706Z,22.00
2019-04-06T13:58:18.064Z,24.57
2019-04-06T14:03:41.222Z,20.83
2019-04-06T14:09:02.041Z,22.10
2019-04-06T14:14:38.215Z,21.87
2019-04-06T14:19:51.016Z,20.70
2019-04-06T14:25:27.754Z,22.03
2019-04-06T14:30:54.666Z,21.23
2019-04-06T14:36:21.978Z,21.40
2019-04-06T14:41:45.334Z,21.47
2019-04-06T14:47:09.964Z,18.77
2019-04-06T14:52:35.542Z,18.70
2019-04-06T14:58:00.689Z,24.13
2019-04-06T15:03:19.607Z,19.53
2019-04-06T15:08:39.118Z,23.13
2019-04-06T15:14:06.623Z,20.87
2019-04-06T15:19:26.128Z,21.83
2019-04-06T15:24:50.137Z,16.87
2019-04-06T15:30:04.491Z,15.37
2019-04-06T15:35:40.913Z,18.03
2019-04-06T15:40:56.860Z,16.17
2019-04-06T15:46:09.732Z,16.20
2019-04-06T15:51:29.656Z,18.80
2019-04-06T15:56:42.269Z,22.87
2019-04-06T16:02:00.213Z,18.93
2019-04-06T16:07:11.596Z,20.60
2019-04-06T16:12:24.460Z,20.07
2019-04-06T16:17:51.838Z,21.47
2019-04-06T16:23:05.194Z,18.40
2019-04-06T16:28:38.761Z,17.07
2019-04-06T16:34:03.460Z,17.27
2019-04-06T16:39:45.774Z,16.67
2019-04-06T16:45:02.443Z,18.37
2019-04-06T16:50:20.159Z,15.40
2019-04-06T16:55:28.967Z,17.90
2019-04-06T17:00:46.503Z,18.00
2019-04-06T17:06:13.287Z,18.30
2019-04-06T17:11:38.289Z,17.63
2019-04-06T17:17:01.551Z,14.20
2019-04-06T17:22:23.785Z,15.13
2019-04-06T17:27:54.964Z,17.50
2019-04-06T17:33:28.492Z,17.53
2019-04-06T17:38:51.166Z,15.53
2019-04-06T17:44:24.754Z,16.20
2019-04-06T17:49:52.082Z,16.93
2019-04-06T17:55:16.788Z,15.23
2019-04-06T18:00:30.434Z,16.33
2019-04-06T18:06:00.373Z,15.60
2019-04-06T18:11:23.037Z,15.03
2019-04-06T18:16:34.482Z,14.93
2019-04-06T18:21:39.847Z,13.80
2019-04-06T18:26:45.170Z,14.37
2019-04-06T18:32:02.990Z,14.57
2019-04-06T18:37:30.167Z,16.10
2019-04-06T18:42:35.429Z,14.80
2019-04-06T18:47:40.654Z,11.10
2019-04-06T18:52:46.470Z,12.47
2019-04-06T18:57:51.610Z,12.43
2019-04-06T19:03:09.769Z,12.40
2019-04-06T19:08:04.409Z,14.53
2019-04-06T19:13:09.968Z,12.97
2019-04-06T19:18:14.881Z,12.00
2019-04-06T19:23:20.185Z,13.57
2019-04-06T19:28:25.571Z,15.27
2019-04-06T19:33:30.592Z,12.90
2019-04-06T19:38:36.420Z,16.33
2019-04-06T19:43:42.566Z,14.60
2019-04-06T19:48:48.179Z,16.63
2019-04-06T19:53:53.829Z,16.07
2019-04-06T19:58:58.828Z,16.37
2019-04-06T20:04:04.591Z,18.77
2019-04-06T20:09:09.677Z,24.20
2019-04-06T20:14:15.069Z,25.97
2019-04-06T20:19:22.417Z,32.13
2019-04-06T20:24:27.374Z,55.97
2019-04-06T20:29:32.937Z,59.27
2019-04-06T20:34:38.934Z,48.70
2019-04-06T20:39:44.688Z,42.03
2019-04-06T20:44:49.998Z,32.10
2019-04-06T20:49:56.446Z,29.67
2019-04-06T20:55:04.849Z,27.43
2019-04-06T21:00:10.865Z,21.37
2019-04-06T21:05:16.619Z,26.00
2019-04-06T21:10:23.122Z,24.00
2019-04-06T21:15:28.569Z,20.57
2019-04-06T21:20:35.450Z,25.70
2019-04-06T21:25:40.514Z,22.57
2019-04-06T21:30:45.652Z,23.00
2019-04-06T21:35:50.541Z,23.10
2019-04-06T21:40:55.541Z,19.57
2019-04-06T21:46:00.532Z,19.83
2019-04-06T21:51:05.776Z,16.07
2019-04-06T21:56:11.114Z,19.53
2019-04-06T22:01:17.547Z,18.60
2019-04-06T22:06:24.393Z,19.03
2019-04-06T22:11:29.271Z,18.90
2019-04-06T22:16:34.654Z,18.93
2019-04-06T22:21:39.868Z,19.80
2019-04-06T22:26:44.695Z,19.40
2019-04-06T22:31:49.530Z,17.77
2019-04-06T22:36:54.462Z,18.87
2019-04-06T22:41:59.365Z,20.40
2019-04-06T22:47:04.842Z,22.33
2019-04-06T22:52:10.192Z,22.40
2019-04-06T22:57:15.990Z,24.27
2019-04-06T23:02:21.466Z,21.43
2019-04-06T23:07:27.222Z,20.77
2019-04-06T23:12:32.508Z,17.20
2019-04-06T23:17:40.548Z,16.87
2019-04-06T23:22:45.553Z,19.80
2019-04-06T23:27:51.325Z,17.20
2019-04-06T23:32:56.977Z,21.03
2019-04-06T23:38:02.018Z,23.83
2019-04-06T23:43:07.419Z,19.67
2019-04-06T23:48:12.382Z,19.00
2019-04-06T23:53:17.645Z,19.27
2019-04-06T23:58:23.041Z,18.70
